sensor_id;sensor_type;location;lat;lon;timestamp;temperature;humidity
9103;DHT22;4587;51.434;6.788;2023-07-31T00:00:38;17.30;99.90
9103;DHT22;4587;51.434;6.788;2023-07-31T00:03:04;17.30;99.90
9103;DHT22;4587;51.434;6.788;2023-07-31T00:05:29;17.30;99.90
9103;DHT22;4587;51.434;6.788;2023-07-31T00:07:55;17.30;99.90
9103;DHT22;4587;51.434;6.788;2023-07-31T00:10:20;17.30;99.90
9103;DHT22;4587;51.434;6.788;2023-07-31T00:12:47;17.30;99.90
9103;DHT22;4587;51.434;6.788;2023-07-31T00:15:13;17.30;99.90
9103;DHT22;4587;51.434;6.788;2023-07-31T00:17:40;17.30;99.90
9103;DHT22;4587;51.434;6.788;2023-07-31T00:20:05;17.20;99.90
9103;DHT22;4587;51.434;6.788;2023-07-31T00:22:31;17.30;99.90
9103;DHT22;4587;51.434;6.788;2023-07-31T00:24:57;17.20;99.90
9103;DHT22;4587;51.434;6.788;2023-07-31T00:27:23;17.20;99.90
9103;DHT22;4587;51.434;6.788;2023-07-31T00:29:48;17.20;99.90
9103;DHT22;4587;51.434;6.788;2023-07-31T00:32:14;17.20;99.90
9103;DHT22;4587;51.434;6.788;2023-07-31T00:34:40;17.20;99.90
9103;DHT22;4587;51.434;6.788;2023-07-31T00:37:05;17.20;99.90
9103;DHT22;4587;51.434;6.788;2023-07-31T00:39:33;17.30;99.90
9103;DHT22;4587;51.434;6.788;2023-07-31T00:41:59;17.20;99.90
9103;DHT22;4587;51.434;6.788;2023-07-31T00:44:24;17.30;99.90
9103;DHT22;4587;51.434;6.788;2023-07-31T00:46:50;17.20;99.90
9103;DHT22;4587;51.434;6.788;2023-07-31T00:49:16;17.20;99.90
9103;DHT22;4587;51.434;6.788;2023-07-31T00:51:41;17.20;99.90
9103;DHT22;4587;51.434;6.788;2023-07-31T00:54:07;17.20;99.90
9103;DHT22;4587;51.434;6.788;2023-07-31T00:56:35;17.20;99.90
9103;DHT22;4587;51.434;6.788;2023-07-31T00:59:01;17.20;99.90
9103;DHT22;4587;51.434;6.788;2023-07-31T01:01:27;17.30;99.90
9103;DHT22;4587;51.434;6.788;2023-07-31T01:03:53;17.30;99.90
9103;DHT22;4587;51.434;6.788;2023-07-31T01:09:03;17.30;99.90
9103;DHT22;4587;51.434;6.788;2023-07-31T01:11:31;17.30;99.90
9103;DHT22;4587;51.434;6.788;2023-07-31T01:13:58;17.30;99.90
9103;DHT22;4587;51.434;6.788;2023-07-31T01:16:25;17.40;99.90
9103;DHT22;4587;51.434;6.788;2023-07-31T01:18:51;17.30;99.90
9103;DHT22;4587;51.434;6.788;2023-07-31T01:26:39;17.40;99.90
9103;DHT22;4587;51.434;6.788;2023-07-31T01:29:26;17.40;99.90
9103;DHT22;4587;51.434;6.788;2023-07-31T01:31:56;17.40;99.90
9103;DHT22;4587;51.434;6.788;2023-07-31T01:34:26;17.30;99.90
9103;DHT22;4587;51.434;6.788;2023-07-31T01:36:52;17.40;99.90
9103;DHT22;4587;51.434;6.788;2023-07-31T01:39:20;17.30;99.90
9103;DHT22;4587;51.434;6.788;2023-07-31T01:41:45;17.30;99.90
9103;DHT22;4587;51.434;6.788;2023-07-31T01:44:11;17.40;99.90
9103;DHT22;4587;51.434;6.788;2023-07-31T01:46:37;17.40;99.90
9103;DHT22;4587;51.434;6.788;2023-07-31T01:49:02;17.40;99.90
9103;DHT22;4587;51.434;6.788;2023-07-31T01:51:28;17.30;99.90
9103;DHT22;4587;51.434;6.788;2023-07-31T01:53:53;17.30;99.90
9103;DHT22;4587;51.434;6.788;2023-07-31T01:56:19;17.30;99.90
9103;DHT22;4587;51.434;6.788;2023-07-31T01:58:44;17.30;99.90
9103;DHT22;4587;51.434;6.788;2023-07-31T02:01:10;17.40;99.90
9103;DHT22;4587;51.434;6.788;2023-07-31T02:03:35;17.40;99.90
9103;DHT22;4587;51.434;6.788;2023-07-31T02:06:01;17.40;99.90
9103;DHT22;4587;51.434;6.788;2023-07-31T02:08:27;17.40;99.90
9103;DHT22;4587;51.434;6.788;2023-07-31T02:10:53;17.40;99.90
9103;DHT22;4587;51.434;6.788;2023-07-31T02:13:18;17.40;99.90
9103;DHT22;4587;51.434;6.788;2023-07-31T02:15:45;17.40;99.90
9103;DHT22;4587;51.434;6.788;2023-07-31T02:18:10;17.40;99.90
9103;DHT22;4587;51.434;6.788;2023-07-31T02:20:36;17.30;99.90
9103;DHT22;4587;51.434;6.788;2023-07-31T02:23:02;17.40;99.90
9103;DHT22;4587;51.434;6.788;2023-07-31T02:25:27;17.40;99.90
9103;DHT22;4587;51.434;6.788;2023-07-31T02:27:53;17.40;99.90
9103;DHT22;4587;51.434;6.788;2023-07-31T02:30:18;17.40;99.90
9103;DHT22;4587;51.434;6.788;2023-07-31T02:32:44;17.40;99.90
9103;DHT22;4587;51.434;6.788;2023-07-31T02:35:09;17.40;99.90
9103;DHT22;4587;51.434;6.788;2023-07-31T02:37:36;17.40;99.90
9103;DHT22;4587;51.434;6.788;2023-07-31T02:40:02;17.40;99.90
9103;DHT22;4587;51.434;6.788;2023-07-31T02:42:27;17.40;99.90
9103;DHT22;4587;51.434;6.788;2023-07-31T02:44:53;17.40;99.90
9103;DHT22;4587;51.434;6.788;2023-07-31T02:47:21;17.40;99.90
9103;DHT22;4587;51.434;6.788;2023-07-31T02:49:47;17.40;99.90
9103;DHT22;4587;51.434;6.788;2023-07-31T02:52:13;17.40;99.90
9103;DHT22;4587;51.434;6.788;2023-07-31T02:54:39;17.40;99.90
9103;DHT22;4587;51.434;6.788;2023-07-31T02:57:04;17.40;99.90
9103;DHT22;4587;51.434;6.788;2023-07-31T02:59:31;17.50;99.90
9103;DHT22;4587;51.434;6.788;2023-07-31T03:01:56;17.50;99.90
9103;DHT22;4587;51.434;6.788;2023-07-31T03:04:22;17.40;99.90
9103;DHT22;4587;51.434;6.788;2023-07-31T03:06:47;17.40;99.90
9103;DHT22;4587;51.434;6.788;2023-07-31T03:09:13;17.50;99.90
9103;DHT22;4587;51.434;6.788;2023-07-31T03:11:38;17.40;99.90
9103;DHT22;4587;51.434;6.788;2023-07-31T03:14:04;17.50;99.90
9103;DHT22;4587;51.434;6.788;2023-07-31T03:16:30;17.50;99.90
9103;DHT22;4587;51.434;6.788;2023-07-31T03:18:55;17.50;99.90
9103;DHT22;4587;51.434;6.788;2023-07-31T03:21:21;17.50;99.90
9103;DHT22;4587;51.434;6.788;2023-07-31T03:23:46;17.50;99.90
9103;DHT22;4587;51.434;6.788;2023-07-31T03:26:12;17.50;99.90
9103;DHT22;4587;51.434;6.788;2023-07-31T03:28:37;17.40;99.90
9103;DHT22;4587;51.434;6.788;2023-07-31T03:31:03;17.50;99.90
9103;DHT22;4587;51.434;6.788;2023-07-31T03:33:29;17.50;99.90
9103;DHT22;4587;51.434;6.788;2023-07-31T03:35:54;17.50;99.90
9103;DHT22;4587;51.434;6.788;2023-07-31T03:38:20;17.50;99.90
9103;DHT22;4587;51.434;6.788;2023-07-31T03:40:46;17.50;99.90
9103;DHT22;4587;51.434;6.788;2023-07-31T03:43:12;17.50;99.90
9103;DHT22;4587;51.434;6.788;2023-07-31T03:45:38;17.50;99.90
9103;DHT22;4587;51.434;6.788;2023-07-31T03:48:04;17.60;99.90
9103;DHT22;4587;51.434;6.788;2023-07-31T03:50:30;17.60;99.90
9103;DHT22;4587;51.434;6.788;2023-07-31T03:52:56;17.60;99.90
9103;DHT22;4587;51.434;6.788;2023-07-31T03:55:21;17.60;99.90
9103;DHT22;4587;51.434;6.788;2023-07-31T03:57:47;17.50;99.90
9103;DHT22;4587;51.434;6.788;2023-07-31T04:00:13;17.60;99.90
9103;DHT22;4587;51.434;6.788;2023-07-31T04:02:39;17.70;99.90
9103;DHT22;4587;51.434;6.788;2023-07-31T04:05:05;17.70;99.90
9103;DHT22;4587;51.434;6.788;2023-07-31T04:07:31;17.70;99.90
9103;DHT22;4587;51.434;6.788;2023-07-31T04:09:57;17.70;99.90
9103;DHT22;4587;51.434;6.788;2023-07-31T04:12:23;17.70;99.90
9103;DHT22;4587;51.434;6.788;2023-07-31T04:14:48;17.70;99.90
9103;DHT22;4587;51.434;6.788;2023-07-31T04:17:14;17.70;99.90
9103;DHT22;4587;51.434;6.788;2023-07-31T04:19:39;17.80;99.90
9103;DHT22;4587;51.434;6.788;2023-07-31T04:22:05;17.70;99.90
9103;DHT22;4587;51.434;6.788;2023-07-31T04:24:30;17.80;99.90
9103;DHT22;4587;51.434;6.788;2023-07-31T04:26:56;17.80;99.90
9103;DHT22;4587;51.434;6.788;2023-07-31T04:29:22;17.80;99.90
9103;DHT22;4587;51.434;6.788;2023-07-31T04:31:48;17.80;99.90
9103;DHT22;4587;51.434;6.788;2023-07-31T04:34:13;17.80;99.90
9103;DHT22;4587;51.434;6.788;2023-07-31T04:36:39;17.80;99.90
9103;DHT22;4587;51.434;6.788;2023-07-31T04:39:05;17.80;99.90
9103;DHT22;4587;51.434;6.788;2023-07-31T04:41:30;17.90;99.90
9103;DHT22;4587;51.434;6.788;2023-07-31T04:43:56;17.80;99.90
9103;DHT22;4587;51.434;6.788;2023-07-31T04:46:21;17.90;99.90
9103;DHT22;4587;51.434;6.788;2023-07-31T04:48:47;17.80;99.90
9103;DHT22;4587;51.434;6.788;2023-07-31T04:51:12;17.80;99.90
9103;DHT22;4587;51.434;6.788;2023-07-31T04:53:38;17.90;99.90
9103;DHT22;4587;51.434;6.788;2023-07-31T04:56:04;17.90;99.90
9103;DHT22;4587;51.434;6.788;2023-07-31T04:58:29;17.90;99.90
9103;DHT22;4587;51.434;6.788;2023-07-31T05:00:55;17.90;99.90
9103;DHT22;4587;51.434;6.788;2023-07-31T05:03:20;17.90;99.90
9103;DHT22;4587;51.434;6.788;2023-07-31T05:05:46;17.90;99.90
9103;DHT22;4587;51.434;6.788;2023-07-31T05:08:11;18.00;99.90
9103;DHT22;4587;51.434;6.788;2023-07-31T05:10:37;18.00;99.90
9103;DHT22;4587;51.434;6.788;2023-07-31T05:13:03;18.00;99.90
9103;DHT22;4587;51.434;6.788;2023-07-31T05:15:29;17.90;99.90
9103;DHT22;4587;51.434;6.788;2023-07-31T05:17:54;17.90;99.90
9103;DHT22;4587;51.434;6.788;2023-07-31T05:20:20;18.00;99.90
9103;DHT22;4587;51.434;6.788;2023-07-31T05:22:46;18.00;99.90
9103;DHT22;4587;51.434;6.788;2023-07-31T05:25:12;18.00;99.90
9103;DHT22;4587;51.434;6.788;2023-07-31T05:27:37;18.00;99.90
9103;DHT22;4587;51.434;6.788;2023-07-31T05:30:04;18.00;99.90
9103;DHT22;4587;51.434;6.788;2023-07-31T05:32:29;18.00;99.90
9103;DHT22;4587;51.434;6.788;2023-07-31T05:34:55;18.00;99.90
9103;DHT22;4587;51.434;6.788;2023-07-31T05:37:22;18.00;99.90
9103;DHT22;4587;51.434;6.788;2023-07-31T05:39:47;18.00;99.90
9103;DHT22;4587;51.434;6.788;2023-07-31T05:42:13;18.00;99.90
9103;DHT22;4587;51.434;6.788;2023-07-31T05:44:39;18.00;99.90
9103;DHT22;4587;51.434;6.788;2023-07-31T05:47:04;17.90;99.90
9103;DHT22;4587;51.434;6.788;2023-07-31T05:49:30;18.00;99.90
9103;DHT22;4587;51.434;6.788;2023-07-31T05:51:56;18.00;99.90
9103;DHT22;4587;51.434;6.788;2023-07-31T05:54:21;18.00;99.90
9103;DHT22;4587;51.434;6.788;2023-07-31T05:56:47;18.00;99.90
9103;DHT22;4587;51.434;6.788;2023-07-31T05:59:13;18.00;99.90
9103;DHT22;4587;51.434;6.788;2023-07-31T06:01:39;18.00;99.90
9103;DHT22;4587;51.434;6.788;2023-07-31T06:04:04;18.10;99.90
9103;DHT22;4587;51.434;6.788;2023-07-31T06:06:30;18.10;99.90
9103;DHT22;4587;51.434;6.788;2023-07-31T06:08:55;18.20;99.90
9103;DHT22;4587;51.434;6.788;2023-07-31T06:11:21;18.20;99.90
9103;DHT22;4587;51.434;6.788;2023-07-31T06:13:47;18.20;99.90
9103;DHT22;4587;51.434;6.788;2023-07-31T06:16:14;18.20;99.90
9103;DHT22;4587;51.434;6.788;2023-07-31T06:18:41;18.20;99.90
9103;DHT22;4587;51.434;6.788;2023-07-31T06:21:06;18.30;99.90
9103;DHT22;4587;51.434;6.788;2023-07-31T06:23:32;18.30;99.90
9103;DHT22;4587;51.434;6.788;2023-07-31T06:25:57;18.20;99.90
9103;DHT22;4587;51.434;6.788;2023-07-31T06:28:30;18.10;99.90
9103;DHT22;4587;51.434;6.788;2023-07-31T06:30:56;18.10;99.90
9103;DHT22;4587;51.434;6.788;2023-07-31T06:33:22;18.10;99.90
9103;DHT22;4587;51.434;6.788;2023-07-31T06:35:47;18.10;99.90
9103;DHT22;4587;51.434;6.788;2023-07-31T06:38:13;18.00;99.90
9103;DHT22;4587;51.434;6.788;2023-07-31T06:40:38;18.10;99.90
9103;DHT22;4587;51.434;6.788;2023-07-31T06:43:05;18.10;99.90
9103;DHT22;4587;51.434;6.788;2023-07-31T06:45:36;18.10;99.90
9103;DHT22;4587;51.434;6.788;2023-07-31T06:48:03;18.00;99.90
9103;DHT22;4587;51.434;6.788;2023-07-31T06:50:30;18.00;99.90
9103;DHT22;4587;51.434;6.788;2023-07-31T06:52:55;18.00;99.90
9103;DHT22;4587;51.434;6.788;2023-07-31T06:55:21;18.00;99.90
9103;DHT22;4587;51.434;6.788;2023-07-31T06:57:52;18.10;99.90
9103;DHT22;4587;51.434;6.788;2023-07-31T07:00:19;18.10;99.90
9103;DHT22;4587;51.434;6.788;2023-07-31T07:02:45;18.10;99.90
9103;DHT22;4587;51.434;6.788;2023-07-31T07:05:13;18.10;99.90
9103;DHT22;4587;51.434;6.788;2023-07-31T07:07:38;18.00;99.90
9103;DHT22;4587;51.434;6.788;2023-07-31T07:10:04;18.00;99.90
9103;DHT22;4587;51.434;6.788;2023-07-31T07:12:31;18.00;99.90
9103;DHT22;4587;51.434;6.788;2023-07-31T07:14:56;18.00;99.90
9103;DHT22;4587;51.434;6.788;2023-07-31T07:17:26;18.00;99.90
9103;DHT22;4587;51.434;6.788;2023-07-31T07:19:52;18.00;99.90
9103;DHT22;4587;51.434;6.788;2023-07-31T07:22:18;17.90;99.90
9103;DHT22;4587;51.434;6.788;2023-07-31T07:24:43;17.90;99.90
9103;DHT22;4587;51.434;6.788;2023-07-31T07:27:09;17.90;99.90
9103;DHT22;4587;51.434;6.788;2023-07-31T07:29:35;17.90;99.90
9103;DHT22;4587;51.434;6.788;2023-07-31T07:32:01;17.90;99.90
9103;DHT22;4587;51.434;6.788;2023-07-31T07:34:27;17.90;99.90
9103;DHT22;4587;51.434;6.788;2023-07-31T07:36:53;17.80;99.90
9103;DHT22;4587;51.434;6.788;2023-07-31T07:39:19;17.90;99.90
9103;DHT22;4587;51.434;6.788;2023-07-31T07:41:45;17.90;99.90
9103;DHT22;4587;51.434;6.788;2023-07-31T07:44:11;17.90;99.90
9103;DHT22;4587;51.434;6.788;2023-07-31T07:46:37;18.00;99.90
9103;DHT22;4587;51.434;6.788;2023-07-31T07:49:02;17.90;99.90
9103;DHT22;4587;51.434;6.788;2023-07-31T07:51:28;17.90;99.90
9103;DHT22;4587;51.434;6.788;2023-07-31T07:53:56;17.90;99.90
9103;DHT22;4587;51.434;6.788;2023-07-31T07:56:21;17.90;99.90
9103;DHT22;4587;51.434;6.788;2023-07-31T07:58:49;17.80;99.90
9103;DHT22;4587;51.434;6.788;2023-07-31T08:01:15;17.80;99.90
9103;DHT22;4587;51.434;6.788;2023-07-31T08:03:41;17.80;99.90
9103;DHT22;4587;51.434;6.788;2023-07-31T08:06:07;17.80;99.90
9103;DHT22;4587;51.434;6.788;2023-07-31T08:08:37;17.80;99.90
9103;DHT22;4587;51.434;6.788;2023-07-31T08:11:03;17.90;99.90
9103;DHT22;4587;51.434;6.788;2023-07-31T08:13:28;18.00;99.90
9103;DHT22;4587;51.434;6.788;2023-07-31T08:15:54;18.00;99.90
9103;DHT22;4587;51.434;6.788;2023-07-31T08:18:20;18.00;99.90
9103;DHT22;4587;51.434;6.788;2023-07-31T08:20:45;18.00;99.90
9103;DHT22;4587;51.434;6.788;2023-07-31T08:23:11;18.00;99.90
9103;DHT22;4587;51.434;6.788;2023-07-31T08:25:37;17.90;99.90
9103;DHT22;4587;51.434;6.788;2023-07-31T08:28:04;17.80;99.90
9103;DHT22;4587;51.434;6.788;2023-07-31T08:30:30;17.80;99.90
9103;DHT22;4587;51.434;6.788;2023-07-31T08:32:56;17.70;99.90
9103;DHT22;4587;51.434;6.788;2023-07-31T08:35:21;17.80;99.90
9103;DHT22;4587;51.434;6.788;2023-07-31T08:37:47;17.80;99.90
9103;DHT22;4587;51.434;6.788;2023-07-31T08:40:13;17.80;99.90
9103;DHT22;4587;51.434;6.788;2023-07-31T08:42:46;17.80;99.90
9103;DHT22;4587;51.434;6.788;2023-07-31T08:45:16;17.80;99.90
9103;DHT22;4587;51.434;6.788;2023-07-31T08:47:47;17.80;99.90
9103;DHT22;4587;51.434;6.788;2023-07-31T08:50:14;17.80;99.90
9103;DHT22;4587;51.434;6.788;2023-07-31T08:52:40;17.80;99.90
9103;DHT22;4587;51.434;6.788;2023-07-31T08:55:06;17.80;99.90
9103;DHT22;4587;51.434;6.788;2023-07-31T08:57:35;17.80;99.90
9103;DHT22;4587;51.434;6.788;2023-07-31T09:00:02;17.80;99.90
9103;DHT22;4587;51.434;6.788;2023-07-31T09:02:35;17.80;99.90
9103;DHT22;4587;51.434;6.788;2023-07-31T09:05:02;17.80;99.90
9103;DHT22;4587;51.434;6.788;2023-07-31T09:07:29;17.80;99.90
9103;DHT22;4587;51.434;6.788;2023-07-31T09:09:57;17.70;99.90
9103;DHT22;4587;51.434;6.788;2023-07-31T09:12:22;17.80;99.90
9103;DHT22;4587;51.434;6.788;2023-07-31T09:14:49;17.80;99.90
9103;DHT22;4587;51.434;6.788;2023-07-31T09:17:14;17.80;99.90
9103;DHT22;4587;51.434;6.788;2023-07-31T09:19:40;17.80;99.90
9103;DHT22;4587;51.434;6.788;2023-07-31T09:22:06;17.90;99.90
9103;DHT22;4587;51.434;6.788;2023-07-31T09:24:33;17.90;99.90
9103;DHT22;4587;51.434;6.788;2023-07-31T09:27:00;17.90;99.90
9103;DHT22;4587;51.434;6.788;2023-07-31T09:29:27;18.00;99.90
9103;DHT22;4587;51.434;6.788;2023-07-31T09:31:54;18.10;99.90
9103;DHT22;4587;51.434;6.788;2023-07-31T09:34:21;18.10;99.90
9103;DHT22;4587;51.434;6.788;2023-07-31T09:36:53;18.10;99.90
9103;DHT22;4587;51.434;6.788;2023-07-31T09:39:19;18.20;99.90
9103;DHT22;4587;51.434;6.788;2023-07-31T09:41:54;18.20;99.90
9103;DHT22;4587;51.434;6.788;2023-07-31T09:44:20;18.20;99.90
9103;DHT22;4587;51.434;6.788;2023-07-31T09:46:46;18.20;99.90
9103;DHT22;4587;51.434;6.788;2023-07-31T09:49:14;18.20;99.90
9103;DHT22;4587;51.434;6.788;2023-07-31T09:51:41;18.20;99.90
9103;DHT22;4587;51.434;6.788;2023-07-31T09:56:45;18.20;99.90
9103;DHT22;4587;51.434;6.788;2023-07-31T09:59:15;18.30;99.90
9103;DHT22;4587;51.434;6.788;2023-07-31T10:01:41;18.30;99.90
9103;DHT22;4587;51.434;6.788;2023-07-31T10:04:09;18.30;99.90
9103;DHT22;4587;51.434;6.788;2023-07-31T10:06:36;18.30;99.90
9103;DHT22;4587;51.434;6.788;2023-07-31T10:09:09;18.30;99.90
9103;DHT22;4587;51.434;6.788;2023-07-31T10:11:51;18.30;99.90
9103;DHT22;4587;51.434;6.788;2023-07-31T10:14:20;18.30;99.90
9103;DHT22;4587;51.434;6.788;2023-07-31T10:16:46;18.30;99.90
9103;DHT22;4587;51.434;6.788;2023-07-31T10:19:12;18.30;99.90
9103;DHT22;4587;51.434;6.788;2023-07-31T10:21:38;18.40;99.90
9103;DHT22;4587;51.434;6.788;2023-07-31T10:24:04;18.30;99.90
9103;DHT22;4587;51.434;6.788;2023-07-31T10:26:31;18.30;99.90
9103;DHT22;4587;51.434;6.788;2023-07-31T10:28:58;18.30;99.90
9103;DHT22;4587;51.434;6.788;2023-07-31T10:31:24;18.30;99.90
9103;DHT22;4587;51.434;6.788;2023-07-31T10:33:51;18.30;99.90
9103;DHT22;4587;51.434;6.788;2023-07-31T10:36:18;18.40;99.90
9103;DHT22;4587;51.434;6.788;2023-07-31T10:38:45;18.50;99.90
9103;DHT22;4587;51.434;6.788;2023-07-31T10:41:11;18.60;99.90
9103;DHT22;4587;51.434;6.788;2023-07-31T10:43:39;18.70;99.90
9103;DHT22;4587;51.434;6.788;2023-07-31T10:46:14;18.80;99.90
9103;DHT22;4587;51.434;6.788;2023-07-31T10:48:41;18.90;99.90
9103;DHT22;4587;51.434;6.788;2023-07-31T10:51:12;19.00;99.90
9103;DHT22;4587;51.434;6.788;2023-07-31T10:53:38;19.00;99.90
9103;DHT22;4587;51.434;6.788;2023-07-31T10:56:07;19.00;99.90
9103;DHT22;4587;51.434;6.788;2023-07-31T10:58:32;19.10;99.90
9103;DHT22;4587;51.434;6.788;2023-07-31T11:01:00;19.00;99.90
9103;DHT22;4587;51.434;6.788;2023-07-31T11:03:40;19.10;99.90
9103;DHT22;4587;51.434;6.788;2023-07-31T11:06:06;19.10;99.90
9103;DHT22;4587;51.434;6.788;2023-07-31T11:08:33;19.00;99.90
9103;DHT22;4587;51.434;6.788;2023-07-31T11:13:29;19.10;99.90
9103;DHT22;4587;51.434;6.788;2023-07-31T11:15:54;19.20;99.90
9103;DHT22;4587;51.434;6.788;2023-07-31T11:18:20;19.20;99.90
9103;DHT22;4587;51.434;6.788;2023-07-31T11:20:46;19.20;99.90
9103;DHT22;4587;51.434;6.788;2023-07-31T11:23:11;19.20;99.90
9103;DHT22;4587;51.434;6.788;2023-07-31T11:25:39;19.30;99.90
9103;DHT22;4587;51.434;6.788;2023-07-31T11:28:15;19.30;99.90
9103;DHT22;4587;51.434;6.788;2023-07-31T11:30:42;19.40;99.90
9103;DHT22;4587;51.434;6.788;2023-07-31T11:33:10;19.50;99.90
9103;DHT22;4587;51.434;6.788;2023-07-31T11:35:46;19.50;99.90
9103;DHT22;4587;51.434;6.788;2023-07-31T11:40:48;19.50;99.90
9103;DHT22;4587;51.434;6.788;2023-07-31T11:43:14;19.40;99.90
9103;DHT22;4587;51.434;6.788;2023-07-31T11:45:46;19.40;99.90
9103;DHT22;4587;51.434;6.788;2023-07-31T11:48:28;19.30;99.90
9103;DHT22;4587;51.434;6.788;2023-07-31T11:50:57;19.40;99.90
9103;DHT22;4587;51.434;6.788;2023-07-31T11:53:41;19.30;99.90
9103;DHT22;4587;51.434;6.788;2023-07-31T11:56:09;19.30;99.90
9103;DHT22;4587;51.434;6.788;2023-07-31T11:58:37;19.20;99.90
9103;DHT22;4587;51.434;6.788;2023-07-31T12:01:04;19.20;99.90
9103;DHT22;4587;51.434;6.788;2023-07-31T12:03:30;19.10;99.90
9103;DHT22;4587;51.434;6.788;2023-07-31T12:05:56;19.10;99.90
9103;DHT22;4587;51.434;6.788;2023-07-31T12:08:24;19.10;99.90
9103;DHT22;4587;51.434;6.788;2023-07-31T12:10:51;19.00;99.90
9103;DHT22;4587;51.434;6.788;2023-07-31T12:13:24;18.90;99.90
9103;DHT22;4587;51.434;6.788;2023-07-31T12:15:55;18.80;99.90
9103;DHT22;4587;51.434;6.788;2023-07-31T12:18:23;18.80;99.90
9103;DHT22;4587;51.434;6.788;2023-07-31T12:20:55;18.90;99.90
9103;DHT22;4587;51.434;6.788;2023-07-31T12:23:31;18.90;99.90
9103;DHT22;4587;51.434;6.788;2023-07-31T12:28:28;19.00;99.90
9103;DHT22;4587;51.434;6.788;2023-07-31T12:30:57;19.20;99.90
9103;DHT22;4587;51.434;6.788;2023-07-31T12:33:31;19.30;99.90
9103;DHT22;4587;51.434;6.788;2023-07-31T12:36:00;19.50;99.90
9103;DHT22;4587;51.434;6.788;2023-07-31T12:38:25;19.70;99.90
9103;DHT22;4587;51.434;6.788;2023-07-31T12:40:51;19.90;99.90
9103;DHT22;4587;51.434;6.788;2023-07-31T12:43:16;19.80;99.90
9103;DHT22;4587;51.434;6.788;2023-07-31T12:45:42;19.80;99.90
9103;DHT22;4587;51.434;6.788;2023-07-31T12:48:08;19.70;99.90
9103;DHT22;4587;51.434;6.788;2023-07-31T12:50:33;19.70;99.90
9103;DHT22;4587;51.434;6.788;2023-07-31T12:53:02;19.60;99.90
9103;DHT22;4587;51.434;6.788;2023-07-31T12:55:28;19.60;99.90
9103;DHT22;4587;51.434;6.788;2023-07-31T12:57:55;19.50;99.90
9103;DHT22;4587;51.434;6.788;2023-07-31T13:00:21;19.50;99.90
9103;DHT22;4587;51.434;6.788;2023-07-31T13:02:47;19.60;99.90
9103;DHT22;4587;51.434;6.788;2023-07-31T13:05:12;19.60;99.90
9103;DHT22;4587;51.434;6.788;2023-07-31T13:07:39;19.60;99.90
9103;DHT22;4587;51.434;6.788;2023-07-31T13:10:05;19.70;99.90
9103;DHT22;4587;51.434;6.788;2023-07-31T13:12:31;19.70;99.90
9103;DHT22;4587;51.434;6.788;2023-07-31T13:14:57;19.80;99.90
9103;DHT22;4587;51.434;6.788;2023-07-31T13:17:22;19.90;99.90
9103;DHT22;4587;51.434;6.788;2023-07-31T13:19:48;19.90;99.90
9103;DHT22;4587;51.434;6.788;2023-07-31T13:22:14;19.90;99.90
9103;DHT22;4587;51.434;6.788;2023-07-31T13:24:39;19.90;99.90
9103;DHT22;4587;51.434;6.788;2023-07-31T13:27:05;19.80;99.90
9103;DHT22;4587;51.434;6.788;2023-07-31T13:29:30;19.90;99.90
9103;DHT22;4587;51.434;6.788;2023-07-31T13:31:57;19.90;99.90
9103;DHT22;4587;51.434;6.788;2023-07-31T13:34:23;19.90;99.90
9103;DHT22;4587;51.434;6.788;2023-07-31T13:36:48;19.90;99.90
9103;DHT22;4587;51.434;6.788;2023-07-31T13:39:14;19.90;99.90
9103;DHT22;4587;51.434;6.788;2023-07-31T13:41:40;20.00;99.90
9103;DHT22;4587;51.434;6.788;2023-07-31T13:44:05;19.90;99.90
9103;DHT22;4587;51.434;6.788;2023-07-31T13:46:31;19.90;99.90
9103;DHT22;4587;51.434;6.788;2023-07-31T13:48:58;19.90;99.90
9103;DHT22;4587;51.434;6.788;2023-07-31T13:51:25;19.90;99.90
9103;DHT22;4587;51.434;6.788;2023-07-31T13:53:50;19.80;99.90
9103;DHT22;4587;51.434;6.788;2023-07-31T13:56:16;19.80;99.90
9103;DHT22;4587;51.434;6.788;2023-07-31T13:58:41;20.00;99.90
9103;DHT22;4587;51.434;6.788;2023-07-31T14:01:07;20.10;99.90
9103;DHT22;4587;51.434;6.788;2023-07-31T14:03:32;20.20;99.90
9103;DHT22;4587;51.434;6.788;2023-07-31T14:05:58;20.40;99.90
9103;DHT22;4587;51.434;6.788;2023-07-31T14:08:24;20.60;99.90
9103;DHT22;4587;51.434;6.788;2023-07-31T14:10:49;20.70;99.90
9103;DHT22;4587;51.434;6.788;2023-07-31T14:13:15;20.70;99.90
9103;DHT22;4587;51.434;6.788;2023-07-31T14:15:43;20.60;99.90
9103;DHT22;4587;51.434;6.788;2023-07-31T14:18:09;20.50;99.90
9103;DHT22;4587;51.434;6.788;2023-07-31T14:20:35;20.50;99.90
9103;DHT22;4587;51.434;6.788;2023-07-31T14:23:02;20.50;99.90
9103;DHT22;4587;51.434;6.788;2023-07-31T14:25:27;20.50;99.90
9103;DHT22;4587;51.434;6.788;2023-07-31T14:27:53;20.40;99.90
9103;DHT22;4587;51.434;6.788;2023-07-31T14:30:18;20.30;99.90
9103;DHT22;4587;51.434;6.788;2023-07-31T14:32:44;20.30;99.90
9103;DHT22;4587;51.434;6.788;2023-07-31T14:35:10;20.20;99.90
9103;DHT22;4587;51.434;6.788;2023-07-31T14:37:40;20.10;99.90
9103;DHT22;4587;51.434;6.788;2023-07-31T14:40:07;20.10;99.90
9103;DHT22;4587;51.434;6.788;2023-07-31T14:42:33;20.10;99.90
9103;DHT22;4587;51.434;6.788;2023-07-31T14:44:59;20.10;99.90
9103;DHT22;4587;51.434;6.788;2023-07-31T14:47:24;20.00;99.90
9103;DHT22;4587;51.434;6.788;2023-07-31T14:49:50;20.00;99.90
9103;DHT22;4587;51.434;6.788;2023-07-31T14:52:15;19.90;99.90
9103;DHT22;4587;51.434;6.788;2023-07-31T14:54:41;19.90;99.90
9103;DHT22;4587;51.434;6.788;2023-07-31T14:57:08;19.80;99.90
9103;DHT22;4587;51.434;6.788;2023-07-31T14:59:34;19.70;99.90
9103;DHT22;4587;51.434;6.788;2023-07-31T15:01:59;19.70;99.90
9103;DHT22;4587;51.434;6.788;2023-07-31T15:04:25;19.60;99.90
9103;DHT22;4587;51.434;6.788;2023-07-31T15:06:52;19.50;99.90
9103;DHT22;4587;51.434;6.788;2023-07-31T15:09:17;19.50;99.90
9103;DHT22;4587;51.434;6.788;2023-07-31T15:11:43;19.50;99.90
9103;DHT22;4587;51.434;6.788;2023-07-31T15:14:09;19.50;99.90
9103;DHT22;4587;51.434;6.788;2023-07-31T15:16:34;19.50;99.90
9103;DHT22;4587;51.434;6.788;2023-07-31T15:19:00;19.50;99.90
9103;DHT22;4587;51.434;6.788;2023-07-31T15:21:26;19.60;99.90
9103;DHT22;4587;51.434;6.788;2023-07-31T15:23:51;19.60;99.90
9103;DHT22;4587;51.434;6.788;2023-07-31T15:26:17;19.70;99.90
9103;DHT22;4587;51.434;6.788;2023-07-31T15:28:49;19.70;99.90
9103;DHT22;4587;51.434;6.788;2023-07-31T15:31:14;19.70;99.90
9103;DHT22;4587;51.434;6.788;2023-07-31T15:33:40;19.70;99.90
9103;DHT22;4587;51.434;6.788;2023-07-31T15:36:05;19.70;99.90
9103;DHT22;4587;51.434;6.788;2023-07-31T15:38:31;19.80;99.90
9103;DHT22;4587;51.434;6.788;2023-07-31T15:40:57;19.90;99.90
9103;DHT22;4587;51.434;6.788;2023-07-31T15:43:23;19.90;99.90
9103;DHT22;4587;51.434;6.788;2023-07-31T15:45:48;19.90;99.90
9103;DHT22;4587;51.434;6.788;2023-07-31T15:48:14;19.90;99.90
9103;DHT22;4587;51.434;6.788;2023-07-31T15:50:39;19.90;99.90
9103;DHT22;4587;51.434;6.788;2023-07-31T15:53:06;20.00;99.90
9103;DHT22;4587;51.434;6.788;2023-07-31T15:55:32;20.00;99.90
9103;DHT22;4587;51.434;6.788;2023-07-31T15:57:58;19.90;99.90
9103;DHT22;4587;51.434;6.788;2023-07-31T16:00:23;19.80;99.90
9103;DHT22;4587;51.434;6.788;2023-07-31T16:02:49;19.70;99.90
9103;DHT22;4587;51.434;6.788;2023-07-31T16:05:15;19.70;99.90
9103;DHT22;4587;51.434;6.788;2023-07-31T16:07:40;19.60;99.90
9103;DHT22;4587;51.434;6.788;2023-07-31T16:10:07;19.50;99.90
9103;DHT22;4587;51.434;6.788;2023-07-31T16:12:32;19.30;99.90
9103;DHT22;4587;51.434;6.788;2023-07-31T16:14:58;19.30;99.90